sensor_id;sensor_type;location;lat;lon;timestamp;pressure;altitude;pressure_sealevel;temperature;humidity
33454;BME280;39400;49.744;7.012;2023-01-08T00:02:14;95141.31;;;7.01;100.00
33454;BME280;39400;49.744;7.012;2023-01-08T00:04:39;95145.59;;;7.02;100.00
33454;BME280;39400;49.744;7.012;2023-01-08T00:07:04;95140.53;;;6.94;100.00
33454;BME280;39400;49.744;7.012;2023-01-08T00:09:30;95141.31;;;6.94;100.00
33454;BME280;39400;49.744;7.012;2023-01-08T00:11:55;95142.47;;;6.86;100.00
33454;BME280;39400;49.744;7.012;2023-01-08T00:14:20;95134.66;;;7.02;100.00
33454;BME280;39400;49.744;7.012;2023-01-08T00:16:46;95142.84;;;6.95;100.00
33454;BME280;39400;49.744;7.012;2023-01-08T00:19:11;95130.75;;;6.85;100.00
33454;BME280;39400;49.744;7.012;2023-01-08T00:21:37;95138.94;;;6.89;100.00
33454;BME280;39400;49.744;7.012;2023-01-08T00:24:03;95135.06;;;6.90;100.00
33454;BME280;39400;49.744;7.012;2023-01-08T00:26:28;95136.59;;;6.91;100.00
33454;BME280;39400;49.744;7.012;2023-01-08T00:28:54;95142.06;;;6.98;100.00
33454;BME280;39400;49.744;7.012;2023-01-08T00:31:19;95142.84;;;6.88;100.00
33454;BME280;39400;49.744;7.012;2023-01-08T00:33:45;95156.13;;;6.86;100.00
33454;BME280;39400;49.744;7.012;2023-01-08T00:36:12;95136.59;;;6.91;100.00
33454;BME280;39400;49.744;7.012;2023-01-08T00:38:38;95134.28;;;6.82;100.00
33454;BME280;39400;49.744;7.012;2023-01-08T00:41:04;95135.06;;;6.83;100.00
33454;BME280;39400;49.744;7.012;2023-01-08T00:43:29;95127.22;;;6.92;100.00
33454;BME280;39400;49.744;7.012;2023-01-08T00:45:55;95128.81;;;6.93;100.00
33454;BME280;39400;49.744;7.012;2023-01-08T00:48:21;95125.69;;;6.91;100.00
33454;BME280;39400;49.744;7.012;2023-01-08T00:50:47;95125.69;;;6.91;100.00
33454;BME280;39400;49.744;7.012;2023-01-08T00:53:13;95128.81;;;6.86;100.00
33454;BME280;39400;49.744;7.012;2023-01-08T00:55:38;95121.75;;;6.85;100.00
33454;BME280;39400;49.744;7.012;2023-01-08T00:58:04;95120.22;;;6.91;100.00
33454;BME280;39400;49.744;7.012;2023-01-08T01:00:29;95119.81;;;6.89;100.00
33454;BME280;39400;49.744;7.012;2023-01-08T01:02:54;95113.56;;;6.85;100.00
33454;BME280;39400;49.744;7.012;2023-01-08T01:05:20;95105.78;;;6.87;100.00
33454;BME280;39400;49.744;7.012;2023-01-08T01:07:45;95106.94;;;6.86;100.00
33454;BME280;39400;49.744;7.012;2023-01-08T01:10:13;95112.41;;;6.86;100.00
33454;BME280;39400;49.744;7.012;2023-01-08T01:12:39;95102.25;;;6.83;100.00
33454;BME280;39400;49.744;7.012;2023-01-08T01:15:07;95112.41;;;6.86;100.00
33454;BME280;39400;49.744;7.012;2023-01-08T01:17:33;95111.63;;;6.89;100.00
33454;BME280;39400;49.744;7.012;2023-01-08T01:19:59;95096.81;;;6.83;100.00
33454;BME280;39400;49.744;7.012;2023-01-08T01:22:24;95097.56;;;6.80;100.00
33454;BME280;39400;49.744;7.012;2023-01-08T01:24:49;95096.00;;;6.79;100.00
33454;BME280;39400;49.744;7.012;2023-01-08T01:27:15;95097.56;;;6.80;100.00
33454;BME280;39400;49.744;7.012;2023-01-08T01:29:40;95090.94;;;6.81;100.00
33454;BME280;39400;49.744;7.012;2023-01-08T01:32:05;95093.25;;;6.79;100.00
33454;BME280;39400;49.744;7.012;2023-01-08T01:34:31;95081.56;;;6.75;100.00
33454;BME280;39400;49.744;7.012;2023-01-08T01:36:56;95086.66;;;6.73;100.00
33454;BME280;39400;49.744;7.012;2023-01-08T01:39:21;95091.34;;;6.76;100.00
33454;BME280;39400;49.744;7.012;2023-01-08T01:41:47;95086.66;;;6.76;100.00
33454;BME280;39400;49.744;7.012;2023-01-08T01:44:41;95100.69;;;6.75;100.00
33454;BME280;39400;49.744;7.012;2023-01-08T01:47:31;95110.06;;;6.70;100.00
33454;BME280;39400;49.744;7.012;2023-01-08T01:52:44;95105.38;;;6.63;100.00
33454;BME280;39400;49.744;7.012;2023-01-08T01:55:12;95094.44;;;6.63;100.00
33454;BME280;39400;49.744;7.012;2023-01-08T01:57:38;95108.50;;;6.55;100.00
33454;BME280;39400;49.744;7.012;2023-01-08T02:00:07;95099.50;;;6.61;100.00
33454;BME280;39400;49.744;7.012;2023-01-08T02:02:40;95096.00;;;6.57;100.00
33454;BME280;39400;49.744;7.012;2023-01-08T02:05:05;95098.34;;;6.62;100.00
33454;BME280;39400;49.744;7.012;2023-01-08T02:07:59;95092.47;;;6.60;100.00
33454;BME280;39400;49.744;7.012;2023-01-08T02:10:53;95085.06;;;6.54;100.00
33454;BME280;39400;49.744;7.012;2023-01-08T02:13:26;95095.97;;;6.50;100.00
33454;BME280;39400;49.744;7.012;2023-01-08T02:16:25;95092.09;;;6.51;100.00
33454;BME280;39400;49.744;7.012;2023-01-08T02:18:56;95087.00;;;6.50;100.00
33454;BME280;39400;49.744;7.012;2023-01-08T02:21:48;95088.97;;;6.56;100.00
33454;BME280;39400;49.744;7.012;2023-01-08T02:27:23;95069.84;;;6.56;100.00
33454;BME280;39400;49.744;7.012;2023-01-08T02:29:50;95076.50;;;6.52;100.00
33454;BME280;39400;49.744;7.012;2023-01-08T02:32:17;95059.34;;;6.55;100.00
33454;BME280;39400;49.744;7.012;2023-01-08T02:34:43;95051.91;;;6.52;100.00
33454;BME280;39400;49.744;7.012;2023-01-08T02:37:08;95049.19;;;6.48;100.00
33454;BME280;39400;49.744;7.012;2023-01-08T02:42:08;95042.13;;;6.47;100.00
33454;BME280;39400;49.744;7.012;2023-01-08T02:44:56;95046.81;;;6.43;100.00
33454;BME280;39400;49.744;7.012;2023-01-08T02:47:37;95038.25;;;6.55;100.00
33454;BME280;39400;49.744;7.012;2023-01-08T02:52:40;95033.56;;;6.45;100.00
33454;BME280;39400;49.744;7.012;2023-01-08T02:55:07;95027.34;;;6.41;100.00
33454;BME280;39400;49.744;7.012;2023-01-08T02:57:34;95024.59;;;6.48;100.00
33454;BME280;39400;49.744;7.012;2023-01-08T02:59:59;95019.53;;;6.43;100.00
33454;BME280;39400;49.744;7.012;2023-01-08T03:02:25;95008.59;;;6.50;100.00
33454;BME280;39400;49.744;7.012;2023-01-08T03:05:00;95009.38;;;6.54;100.00
33454;BME280;39400;49.744;7.012;2023-01-08T03:07:27;94996.91;;;6.53;100.00
33454;BME280;39400;49.744;7.012;2023-01-08T03:09:53;94998.44;;;6.54;100.00
33454;BME280;39400;49.744;7.012;2023-01-08T03:15:12;95003.13;;;6.57;100.00
33454;BME280;39400;49.744;7.012;2023-01-08T03:17:47;94989.09;;;6.48;100.00
33454;BME280;39400;49.744;7.012;2023-01-08T03:20:16;94993.75;;;6.44;100.00
33454;BME280;39400;49.744;7.012;2023-01-08T03:22:46;94989.88;;;6.45;100.00
33454;BME280;39400;49.744;7.012;2023-01-08T03:25:13;94993.78;;;6.51;100.00
33454;BME280;39400;49.744;7.012;2023-01-08T03:27:46;94987.16;;;6.45;100.00
33454;BME280;39400;49.744;7.012;2023-01-08T03:30:15;94996.13;;;6.49;100.00
33454;BME280;39400;49.744;7.012;2023-01-08T03:32:42;95007.03;;;6.42;100.00
33454;BME280;39400;49.744;7.012;2023-01-08T03:35:10;95001.19;;;6.40;100.00
33454;BME280;39400;49.744;7.012;2023-01-08T03:37:40;95004.31;;;6.38;100.00
33454;BME280;39400;49.744;7.012;2023-01-08T03:40:22;94999.22;;;6.40;100.00
33454;BME280;39400;49.744;7.012;2023-01-08T03:42:49;94992.63;;;6.49;100.00
33454;BME280;39400;49.744;7.012;2023-01-08T03:45:14;94996.13;;;6.35;100.00
33454;BME280;39400;49.744;7.012;2023-01-08T03:47:40;94992.22;;;6.39;100.00
33454;BME280;39400;49.744;7.012;2023-01-08T03:50:09;94982.06;;;6.40;100.00
33454;BME280;39400;49.744;7.012;2023-01-08T03:52:36;94971.13;;;6.47;100.00
33454;BME280;39400;49.744;7.012;2023-01-08T03:55:02;94969.59;;;6.39;100.00
33454;BME280;39400;49.744;7.012;2023-01-08T03:57:27;94979.75;;;6.42;100.00
33454;BME280;39400;49.744;7.012;2023-01-08T03:59:53;94973.50;;;6.34;100.00
33454;BME280;39400;49.744;7.012;2023-01-08T04:02:18;94964.13;;;6.35;100.00
33454;BME280;39400;49.744;7.012;2023-01-08T04:04:44;94961.81;;;6.37;100.00
33454;BME280;39400;49.744;7.012;2023-01-08T04:07:10;94961.00;;;6.33;100.00
33454;BME280;39400;49.744;7.012;2023-01-08T04:09:36;94957.13;;;6.38;100.00
33454;BME280;39400;49.744;7.012;2023-01-08T04:12:01;94959.47;;;6.29;100.00
33454;BME280;39400;49.744;7.012;2023-01-08T04:14:27;94953.22;;;6.32;100.00
33454;BME280;39400;49.744;7.012;2023-01-08T04:16:52;94948.53;;;6.29;100.00
33454;BME280;39400;49.744;7.012;2023-01-08T04:19:17;94956.31;;;6.34;100.00
33454;BME280;39400;49.744;7.012;2023-01-08T04:21:43;94954.00;;;6.29;100.00
33454;BME280;39400;49.744;7.012;2023-01-08T04:24:09;94953.22;;;6.32;100.00
33454;BME280;39400;49.744;7.012;2023-01-08T04:26:34;94954.00;;;6.32;100.00
33454;BME280;39400;49.744;7.012;2023-01-08T04:29:03;94949.31;;;6.33;100.00
33454;BME280;39400;49.744;7.012;2023-01-08T04:31:29;94946.97;;;6.35;100.00
33454;BME280;39400;49.744;7.012;2023-01-08T04:33:54;94948.16;;;6.37;100.00
33454;BME280;39400;49.744;7.012;2023-01-08T04:36:20;94952.44;;;6.38;100.00
33454;BME280;39400;49.744;7.012;2023-01-08T04:38:45;94951.66;;;6.34;100.00
33454;BME280;39400;49.744;7.012;2023-01-08T04:41:10;94945.78;;;6.43;100.00
33454;BME280;39400;49.744;7.012;2023-01-08T04:43:36;94946.56;;;6.40;100.00
33454;BME280;39400;49.744;7.012;2023-01-08T04:46:04;94953.22;;;6.42;100.00
33454;BME280;39400;49.744;7.012;2023-01-08T04:48:30;94945.81;;;6.32;100.00
33454;BME280;39400;49.744;7.012;2023-01-08T04:50:59;94948.94;;;6.31;100.00
33454;BME280;39400;49.744;7.012;2023-01-08T04:53:25;94952.44;;;6.31;100.00
33454;BME280;39400;49.744;7.012;2023-01-08T04:55:50;94946.22;;;6.31;100.00
33454;BME280;39400;49.744;7.012;2023-01-08T04:58:15;94953.22;;;6.25;100.00
33454;BME280;39400;49.744;7.012;2023-01-08T05:00:41;94937.63;;;6.29;100.00
33454;BME280;39400;49.744;7.012;2023-01-08T05:03:06;94943.47;;;6.24;100.00
33454;BME280;39400;49.744;7.012;2023-01-08T05:05:33;94949.31;;;6.18;100.00
33454;BME280;39400;49.744;7.012;2023-01-08T05:07:58;94946.59;;;6.22;100.00
33454;BME280;39400;49.744;7.012;2023-01-08T05:10:24;94942.31;;;6.17;100.00
33454;BME280;39400;49.744;7.012;2023-01-08T05:12:49;94942.31;;;6.17;100.00
33454;BME280;39400;49.744;7.012;2023-01-08T05:15:15;94949.72;;;6.21;100.00
33454;BME280;39400;49.744;7.012;2023-01-08T05:17:40;94946.19;;;6.09;100.00
33454;BME280;39400;49.744;7.012;2023-01-08T05:20:06;94947.75;;;6.10;100.00
33454;BME280;39400;49.744;7.012;2023-01-08T05:22:32;94944.63;;;6.12;100.00
33454;BME280;39400;49.744;7.012;2023-01-08T05:24:57;94938.81;;;6.13;100.00
33454;BME280;39400;49.744;7.012;2023-01-08T05:27:22;94922.78;;;6.15;100.00
33454;BME280;39400;49.744;7.012;2023-01-08T05:29:48;94932.16;;;6.07;100.00
33454;BME280;39400;49.744;7.012;2023-01-08T05:32:15;94923.56;;;6.12;100.00
33454;BME280;39400;49.744;7.012;2023-01-08T05:34:40;94928.25;;;6.23;100.00
33454;BME280;39400;49.744;7.012;2023-01-08T05:37:06;94922.03;;;6.26;100.00
33454;BME280;39400;49.744;7.012;2023-01-08T05:39:31;94926.69;;;6.25;100.00
33454;BME280;39400;49.744;7.012;2023-01-08T05:41:57;94923.56;;;6.27;100.00
33454;BME280;39400;49.744;7.012;2023-01-08T05:44:22;94916.56;;;6.33;100.00
33454;BME280;39400;49.744;7.012;2023-01-08T05:46:47;94923.56;;;6.27;100.00
33454;BME280;39400;49.744;7.012;2023-01-08T05:49:13;94916.97;;;6.28;100.00
33454;BME280;39400;49.744;7.012;2023-01-08T05:51:38;94916.19;;;6.31;100.00
33454;BME280;39400;49.744;7.012;2023-01-08T05:54:03;94912.63;;;6.34;100.00
33454;BME280;39400;49.744;7.012;2023-01-08T05:56:29;94910.72;;;6.31;100.00
33454;BME280;39400;49.744;7.012;2023-01-08T05:58:54;94906.41;;;6.37;100.00
33454;BME280;39400;49.744;7.012;2023-01-08T06:01:19;94909.53;;;6.32;100.00
33454;BME280;39400;49.744;7.012;2023-01-08T06:03:44;94911.50;;;6.35;100.00
33454;BME280;39400;49.744;7.012;2023-01-08T06:06:11;94915.38;;;6.34;100.00
33454;BME280;39400;49.744;7.012;2023-01-08T06:08:36;94918.91;;;6.31;100.00
33454;BME280;39400;49.744;7.012;2023-01-08T06:11:04;94926.69;;;6.36;100.00
33454;BME280;39400;49.744;7.012;2023-01-08T06:13:31;94929.03;;;6.34;100.00
33454;BME280;39400;49.744;7.012;2023-01-08T06:15:58;94928.25;;;6.30;100.00
33454;BME280;39400;49.744;7.012;2023-01-08T06:18:23;94926.69;;;6.29;100.00
33454;BME280;39400;49.744;7.012;2023-01-08T06:20:48;94940.75;;;6.24;100.00
33454;BME280;39400;49.744;7.012;2023-01-08T06:23:14;94938.38;;;6.29;100.00
33454;BME280;39400;49.744;7.012;2023-01-08T06:25:39;94940.75;;;6.24;100.00
33454;BME280;39400;49.744;7.012;2023-01-08T06:28:04;94947.75;;;6.25;100.00
33454;BME280;39400;49.744;7.012;2023-01-08T06:30:30;94948.13;;;6.19;100.00
33454;BME280;39400;49.744;7.012;2023-01-08T06:32:56;94942.69;;;6.16;100.00
33454;BME280;39400;49.744;7.012;2023-01-08T06:35:21;94956.31;;;6.19;100.00
33454;BME280;39400;49.744;7.012;2023-01-08T06:37:47;94946.22;;;6.20;100.00
33454;BME280;39400;49.744;7.012;2023-01-08T06:40:12;94953.22;;;6.17;100.00
33454;BME280;39400;49.744;7.012;2023-01-08T06:42:37;94950.09;;;6.15;100.00
33454;BME280;39400;49.744;7.012;2023-01-08T06:45:03;94941.53;;;6.13;100.00
33454;BME280;39400;49.744;7.012;2023-01-08T06:47:28;94947.75;;;6.17;100.00
33454;BME280;39400;49.744;7.012;2023-01-08T06:49:54;94943.84;;;6.18;100.00
33454;BME280;39400;49.744;7.012;2023-01-08T06:52:19;94938.41;;;6.11;100.00
33454;BME280;39400;49.744;7.012;2023-01-08T06:54:44;94930.59;;;6.21;100.00
33454;BME280;39400;49.744;7.012;2023-01-08T06:57:10;94925.16;;;6.13;100.00
33454;BME280;39400;49.744;7.012;2023-01-08T06:59:35;94925.94;;;6.10;100.00
33454;BME280;39400;49.744;7.012;2023-01-08T07:02:00;94926.69;;;6.18;100.00
33454;BME280;39400;49.744;7.012;2023-01-08T07:04:26;94922.81;;;6.01;100.00
33454;BME280;39400;49.744;7.012;2023-01-08T07:06:51;94925.94;;;6.03;100.00
33454;BME280;39400;49.744;7.012;2023-01-08T07:09:16;94939.19;;;6.08;100.00
33454;BME280;39400;49.744;7.012;2023-01-08T07:11:42;94953.22;;;6.00;100.00
33454;BME280;39400;49.744;7.012;2023-01-08T07:14:07;94945.41;;;6.05;100.00
33454;BME280;39400;49.744;7.012;2023-01-08T07:16:33;94950.88;;;6.05;100.00
33454;BME280;39400;49.744;7.012;2023-01-08T07:18:59;94941.91;;;6.01;100.00
33454;BME280;39400;49.744;7.012;2023-01-08T07:21:24;94946.59;;;6.04;100.00
33454;BME280;39400;49.744;7.012;2023-01-08T07:23:50;94950.09;;;6.01;100.00
33454;BME280;39400;49.744;7.012;2023-01-08T07:26:16;94943.84;;;6.11;100.00
33454;BME280;39400;49.744;7.012;2023-01-08T07:28:42;94948.13;;;6.09;100.00
33454;BME280;39400;49.744;7.012;2023-01-08T07:31:08;94949.28;;;5.90;100.00
33454;BME280;39400;49.744;7.012;2023-01-08T07:33:33;94946.53;;;5.90;100.00
33454;BME280;39400;49.744;7.012;2023-01-08T07:35:59;94948.53;;;5.93;100.00
33454;BME280;39400;49.744;7.012;2023-01-08T07:38:24;94946.94;;;5.95;100.00
33454;BME280;39400;49.744;7.012;2023-01-08T07:40:50;94957.81;;;5.92;100.00
33454;BME280;39400;49.744;7.012;2023-01-08T07:43:15;94950.84;;;5.98;100.00
33454;BME280;39400;49.744;7.012;2023-01-08T07:45:41;94948.53;;;5.93;100.00
33454;BME280;39400;49.744;7.012;2023-01-08T07:48:06;94939.16;;;5.94;100.00
33454;BME280;39400;49.744;7.012;2023-01-08T07:50:31;94939.91;;;5.84;100.00
33454;BME280;39400;49.744;7.012;2023-01-08T07:53:00;94950.03;;;5.87;100.00
33454;BME280;39400;49.744;7.012;2023-01-08T07:55:27;94939.13;;;5.87;100.00
33454;BME280;39400;49.744;7.012;2023-01-08T07:57:53;94948.50;;;5.86;100.00
33454;BME280;39400;49.744;7.012;2023-01-08T08:00:19;94953.13;;;5.82;100.00
33454;BME280;39400;49.744;7.012;2023-01-08T08:02:44;94960.16;;;5.83;100.00
33454;BME280;39400;49.744;7.012;2023-01-08T08:05:10;94957.81;;;5.85;100.00
33454;BME280;39400;49.744;7.012;2023-01-08T08:07:35;94952.78;;;5.90;100.00
33454;BME280;39400;49.744;7.012;2023-01-08T08:10:01;94943.06;;;5.93;100.00
33454;BME280;39400;49.744;7.012;2023-01-08T08:12:27;94944.19;;;5.92;100.00
33454;BME280;39400;49.744;7.012;2023-01-08T08:14:52;94939.91;;;5.84;100.00
33454;BME280;39400;49.744;7.012;2023-01-08T08:17:17;94939.91;;;5.84;100.00
33454;BME280;39400;49.744;7.012;2023-01-08T08:19:43;94940.69;;;5.88;100.00
33454;BME280;39400;49.744;7.012;2023-01-08T08:22:08;94937.59;;;5.86;100.00
33454;BME280;39400;49.744;7.012;2023-01-08T08:24:34;94951.59;;;5.81;100.00
33454;BME280;39400;49.744;7.012;2023-01-08T08:26:59;94951.59;;;5.91;100.00
33454;BME280;39400;49.744;7.012;2023-01-08T08:29:24;94943.03;;;5.82;100.00
33454;BME280;39400;49.744;7.012;2023-01-08T08:31:50;94946.91;;;5.85;100.00
33454;BME280;39400;49.744;7.012;2023-01-08T08:34:15;94939.13;;;5.87;100.00
33454;BME280;39400;49.744;7.012;2023-01-08T08:36:40;94955.09;;;5.88;100.00
33454;BME280;39400;49.744;7.012;2023-01-08T08:39:06;94943.41;;;5.81;100.00
33454;BME280;39400;49.744;7.012;2023-01-08T08:41:31;94948.09;;;5.80;100.00
33454;BME280;39400;49.744;7.012;2023-01-08T08:43:56;94947.69;;;5.78;100.00
33454;BME280;39400;49.744;7.012;2023-01-08T08:46:21;94946.91;;;5.85;100.00
33454;BME280;39400;49.744;7.012;2023-01-08T08:48:47;94943.81;;;5.83;100.00
33454;BME280;39400;49.744;7.012;2023-01-08T08:51:13;94939.91;;;5.84;100.00
33454;BME280;39400;49.744;7.012;2023-01-08T08:53:38;94948.09;;;5.87;100.00
33454;BME280;39400;49.744;7.012;2023-01-08T08:56:04;94943.41;;;5.88;100.00
33454;BME280;39400;49.744;7.012;2023-01-08T08:58:29;94931.38;;;5.96;100.00
33454;BME280;39400;49.744;7.012;2023-01-08T09:01:00;94934.50;;;5.98;100.00
33454;BME280;39400;49.744;7.012;2023-01-08T09:03:25;94921.25;;;5.97;100.00
33454;BME280;39400;49.744;7.012;2023-01-08T09:05:50;94918.91;;;6.02;100.00
33454;BME280;39400;49.744;7.012;2023-01-08T09:08:16;94920.84;;;6.05;100.00
33454;BME280;39400;49.744;7.012;2023-01-08T09:10:41;94913.44;;;6.09;100.00
33454;BME280;39400;49.744;7.012;2023-01-08T09:13:07;94907.97;;;6.13;100.00
33454;BME280;39400;49.744;7.012;2023-01-08T09:15:32;94915.78;;;6.11;100.00
33454;BME280;39400;49.744;7.012;2023-01-08T09:17:57;94911.09;;;6.04;100.00
33454;BME280;39400;49.744;7.012;2023-01-08T09:20:25;94906.44;;;6.08;100.00
33454;BME280;39400;49.744;7.012;2023-01-08T09:22:51;94901.38;;;6.10;100.00
33454;BME280;39400;49.744;7.012;2023-01-08T09:25:17;94901.75;;;6.19;100.00
33454;BME280;39400;49.744;7.012;2023-01-08T09:27:42;94896.28;;;6.19;100.00
33454;BME280;39400;49.744;7.012;2023-01-08T09:30:08;94906.03;;;6.24;100.00
33454;BME280;39400;49.744;7.012;2023-01-08T09:32:33;94902.53;;;6.27;100.00
33454;BME280;39400;49.744;7.012;2023-01-08T09:34:59;94902.53;;;6.20;100.00
33454;BME280;39400;49.744;7.012;2023-01-08T09:37:24;94906.41;;;6.19;100.00
33454;BME280;39400;49.744;7.012;2023-01-08T09:39:49;94899.41;;;6.22;100.00
33454;BME280;39400;49.744;7.012;2023-01-08T09:42:19;94902.53;;;6.16;100.00
33454;BME280;39400;49.744;7.012;2023-01-08T09:44:47;94900.19;;;6.18;100.00
33454;BME280;39400;49.744;7.012;2023-01-08T09:47:35;94893.94;;;6.22;100.00
33454;BME280;39400;49.744;7.012;2023-01-08T09:50:05;94891.59;;;6.16;100.00
33454;BME280;39400;49.744;7.012;2023-01-08T09:52:32;94885.38;;;6.12;100.00
33454;BME280;39400;49.744;7.012;2023-01-08T09:54:59;94879.91;;;6.23;100.00
33454;BME280;39400;49.744;7.012;2023-01-08T09:57:25;94878.75;;;6.28;100.00
33454;BME280;39400;49.744;7.012;2023-01-08T09:59:51;94876.03;;;6.24;100.00
33454;BME280;39400;49.744;7.012;2023-01-08T10:02:22;94881.84;;;6.26;100.00
33454;BME280;39400;49.744;7.012;2023-01-08T10:04:58;94877.97;;;6.31;100.00
33454;BME280;39400;49.744;7.012;2023-01-08T10:07:24;94882.22;;;6.39;100.00
33454;BME280;39400;49.744;7.012;2023-01-08T10:09:51;94879.50;;;6.39;100.00
33454;BME280;39400;49.744;7.012;2023-01-08T10:12:24;94893.16;;;6.39;100.00
33454;BME280;39400;49.744;7.012;2023-01-08T10:14:51;94872.09;;;6.25;100.00
33454;BME280;39400;49.744;7.012;2023-01-08T10:17:23;94875.25;;;6.24;100.00
33454;BME280;39400;49.744;7.012;2023-01-08T10:19:49;94870.94;;;6.15;100.00
33454;BME280;39400;49.744;7.012;2023-01-08T10:22:20;94864.31;;;6.16;100.00
33454;BME280;39400;49.744;7.012;2023-01-08T10:24:46;94858.09;;;6.12;100.00
33454;BME280;39400;49.744;7.012;2023-01-08T10:27:18;94854.19;;;6.13;100.00
33454;BME280;39400;49.744;7.012;2023-01-08T10:29:43;94852.63;;;6.12;100.00
33454;BME280;39400;49.744;7.012;2023-01-08T10:32:15;94851.84;;;6.08;100.00
33454;BME280;39400;49.744;7.012;2023-01-08T10:34:51;94844.84;;;6.00;100.00
33454;BME280;39400;49.744;7.012;2023-01-08T10:37:35;94854.59;;;6.01;100.00
33454;BME280;39400;49.744;7.012;2023-01-08T10:40:18;94854.19;;;5.99;100.00
33454;BME280;39400;49.744;7.012;2023-01-08T10:42:44;94843.69;;;5.98;100.00
33454;BME280;39400;49.744;7.012;2023-01-08T10:45:36;94837.03;;;6.02;100.00
33454;BME280;39400;49.744;7.012;2023-01-08T10:48:04;94832.38;;;6.06;100.00
33454;BME280;39400;49.744;7.012;2023-01-08T10:50:32;94836.25;;;6.12;100.00
33454;BME280;39400;49.744;7.012;2023-01-08T10:53:04;94831.56;;;6.09;100.00
33454;BME280;39400;49.744;7.012;2023-01-08T10:55:34;94835.47;;;6.15;100.00
33454;BME280;39400;49.744;7.012;2023-01-08T11:00:28;94830.00;;;6.19;100.00
33454;BME280;39400;49.744;7.012;2023-01-08T11:03:00;94824.53;;;6.23;100.00
33454;BME280;39400;49.744;7.012;2023-01-08T11:05:39;94819.47;;;6.32;100.00
33454;BME280;39400;49.744;7.012;2023-01-08T11:08:07;94823.75;;;6.29;100.00
33454;BME280;39400;49.744;7.012;2023-01-08T11:10:37;94811.28;;;6.25;100.00
33454;BME280;39400;49.744;7.012;2023-01-08T11:13:04;94814.38;;;6.41;100.00
33454;BME280;39400;49.744;7.012;2023-01-08T11:15:33;94812.03;;;6.39;100.00
33454;BME280;39400;49.744;7.012;2023-01-08T11:20:36;94814.38;;;6.27;100.00
33454;BME280;39400;49.744;7.012;2023-01-08T11:25:44;94805.41;;;6.30;100.00
33454;BME280;39400;49.744;7.012;2023-01-08T11:28:17;94790.19;;;6.36;100.00
33454;BME280;39400;49.744;7.012;2023-01-08T11:30:50;94778.47;;;6.46;100.00
33454;BME280;39400;49.744;7.012;2023-01-08T11:33:20;94776.09;;;6.55;100.00
33454;BME280;39400;49.744;7.012;2023-01-08T11:35:49;94779.25;;;6.39;100.00
33454;BME280;39400;49.744;7.012;2023-01-08T11:38:18;94788.22;;;6.40;100.00
33454;BME280;39400;49.744;7.012;2023-01-08T11:43:51;94776.94;;;6.34;100.00
33454;BME280;39400;49.744;7.012;2023-01-08T11:46:34;94778.13;;;6.23;100.00
33454;BME280;39400;49.744;7.012;2023-01-08T11:51:35;94770.00;;;6.05;100.00
33454;BME280;39400;49.744;7.012;2023-01-08T11:54:11;94778.56;;;6.10;100.00
33454;BME280;39400;49.744;7.012;2023-01-08T11:56:48;94766.09;;;6.09;100.00
33454;BME280;39400;49.744;7.012;2023-01-08T12:07:31;94749.69;;;6.24;100.00
33454;BME280;39400;49.744;7.012;2023-01-08T12:12:47;94751.28;;;6.14;100.00
33454;BME280;39400;49.744;7.012;2023-01-08T12:15:37;94752.81;;;6.18;100.00
33454;BME280;39400;49.744;7.012;2023-01-08T12:20:58;94742.69;;;6.15;100.00
33454;BME280;39400;49.744;7.012;2023-01-08T12:23:37;94731.41;;;6.06;100.00
33454;BME280;39400;49.744;7.012;2023-01-08T12:26:15;94735.28;;;6.12;100.00
33454;BME280;39400;49.744;7.012;2023-01-08T12:31:45;94726.28;;;6.19;100.00
33454;BME280;39400;49.744;7.012;2023-01-08T12:34:18;94719.28;;;6.22;100.00
33454;BME280;39400;49.744;7.012;2023-01-08T12:36:48;94705.19;;;6.30;100.00
33454;BME280;39400;49.744;7.012;2023-01-08T12:41:47;94711.47;;;6.16;100.00
33454;BME280;39400;49.744;7.012;2023-01-08T12:44:18;94712.31;;;6.10;100.00
33454;BME280;39400;49.744;7.012;2023-01-08T12:46:46;94715.41;;;6.12;100.00
33454;BME280;39400;49.744;7.012;2023-01-08T12:49:20;94712.69;;;6.08;100.00
33454;BME280;39400;49.744;7.012;2023-01-08T12:51:55;94701.78;;;6.01;100.00
33454;BME280;39400;49.744;7.012;2023-01-08T12:54:33;94701.41;;;5.99;100.00
33454;BME280;39400;49.744;7.012;2023-01-08T12:57:11;94702.56;;;6.05;100.00
33454;BME280;39400;49.744;7.012;2023-01-08T12:59:47;94706.06;;;6.02;100.00
33454;BME280;39400;49.744;7.012;2023-01-08T13:07:50;94694.41;;;5.94;100.00
33454;BME280;39400;49.744;7.012;2023-01-08T13:10:39;94690.50;;;6.06;100.00
33454;BME280;39400;49.744;7.012;2023-01-08T13:13:07;94690.41;;;6.24;100.00
33454;BME280;39400;49.744;7.012;2023-01-08T13:15:33;94676.38;;;6.26;100.00
33454;BME280;39400;49.744;7.012;2023-01-08T13:18:06;94684.19;;;6.20;100.00
33454;BME280;39400;49.744;7.012;2023-01-08T13:20:39;94684.59;;;6.18;100.00
33454;BME280;39400;49.744;7.012;2023-01-08T13:23:05;94684.22;;;6.09;100.00
33454;BME280;39400;49.744;7.012;2023-01-08T13:25:36;94672.47;;;6.19;100.00
33454;BME280;39400;49.744;7.012;2023-01-08T13:28:41;94668.63;;;6.13;100.00
33454;BME280;39400;49.744;7.012;2023-01-08T13:31:28;94664.69;;;6.22;100.00
33454;BME280;39400;49.744;7.012;2023-01-08T13:33:54;94644.41;;;6.19;100.00
33454;BME280;39400;49.744;7.012;2023-01-08T13:39:04;94647.88;;;6.93;100.00
33454;BME280;39400;49.744;7.012;2023-01-08T13:41:35;94637.53;;;6.66;100.00
33454;BME280;39400;49.744;7.012;2023-01-08T13:44:06;94638.06;;;6.43;100.00
33454;BME280;39400;49.744;7.012;2023-01-08T13:46:40;94627.16;;;6.40;100.00
33454;BME280;39400;49.744;7.012;2023-01-08T13:49:07;94631.09;;;6.32;100.00
33454;BME280;39400;49.744;7.012;2023-01-08T13:51:44;94637.66;;;6.45;100.00
33454;BME280;39400;49.744;7.012;2023-01-08T13:56:39;94631.41;;;6.48;100.00
33454;BME280;39400;49.744;7.012;2023-01-08T13:59:05;94640.38;;;6.49;100.00
33454;BME280;39400;49.744;7.012;2023-01-08T14:01:30;94628.66;;;6.52;100.00
33454;BME280;39400;49.744;7.012;2023-01-08T14:03:56;94625.59;;;6.39;100.00